Date,TemperatureHighF,TemperatureAvgF,TemperatureLowF,DewpointHighF,DewpointAvgF,DewpointLowF,HumidityHigh,HumidityAvg,HumidityLow,PressureMaxIn,PressureMinIn,WindSpeedMaxMPH,WindSpeedAvgMPH,GustSpeedMaxMPH,PrecipitationSumIn
2013-9-1,83,70,62,72,65,-100,98,87,69,29.79,29.63,1,0,0,0.00
2013-9-2,73,65,58,68,60,53,97,83,65,29.89,29.67,1,0,0,0.00
2013-9-3,78,64,52,60,55,50,94,75,50,29.99,29.88,1,0,0,0.00
2013-9-4,81,67,55,66,60,54,98,80,55,30.05,29.95,2,1,0,0.00
2013-9-5,74,61,50,60,51,47,94,73,40,30.21,30.05,1,0,0,0.00
2013-9-6,79,65,50,58,54,47,91,69,45,30.19,29.96,2,0,0,0.00
2013-9-7,79,71,62,69,65,56,94,82,68,29.96,29.82,2,0,0,0.00
2013-9-8,77,68,59,64,56,-100,96,72,55,30.02,29.87,2,1,0,0.00
2013-9-9,83,73,59,74,68,54,98,84,71,29.98,29.76,1,0,0,0.00
2013-9-10,91,84,73,73,68,65,93,60,45,29.89,29.75,4,2,0,0.00
2013-9-11,85,76,66,72,67,64,94,74,56,29.93,29.87,3,0,0,0.00
2013-9-12,79,67,53,64,58,50,97,77,51,29.96,29.83,1,0,0,0.00
2013-9-13,65,56,46,50,45,41,94,67,43,30.09,29.96,1,0,0,0.00
2013-9-14,69,59,44,54,49,42,95,71,44,30.14,30.01,2,0,0,0.00
2013-9-15,52,45,51,50,31,-100,92,80,90,30.01,29.99,0,0,0,0.00
2013-9-16,62,55,46,50,47,42,93,76,57,30.32,30.28,1,0,0,0.00
2013-9-17,68,58,43,53,47,41,91,69,47,30.35,30.14,1,0,0,0.00
2013-9-18,64,51,50,49,48,47,89,89,87,30.14,29.93,0,0,0,0.00
2013-9-19,73,69,62,69,65,55,98,87,75,29.93,29.76,2,0,0,0.00
2013-9-20,69,68,67,67,66,65,93,93,93,29.80,29.74,1,0,0,0.00
2013-9-21,67,59,52,55,51,47,87,74,60,29.85,29.71,1,0,0,0.00
2013-9-22,52,44,51,47,26,-100,87,73,84,29.86,29.85,0,0,0,0.00
2013-9-23,65,56,46,49,46,43,97,70,52,30.14,30.04,1,0,0,0.00
2013-9-24,69,58,45,53,50,43,98,74,52,30.09,29.93,2,0,0,0.00
2013-9-25,73,63,49,53,51,47,96,67,48,29.96,29.90,1,0,0,0.00
2013-9-26,77,64,50,56,52,48,98,68,40,30.06,29.93,1,0,0,0.00
2013-9-27,79,68,51,58,54,49,98,66,42,30.16,30.06,1,0,0,0.00
2013-9-28,78,70,56,60,56,52,88,64,47,30.10,29.87,3,1,0,0.00
2013-9-29,71,61,51,57,50,-100,94,72,54,29.93,29.85,0,0,0,0.00
2013-9-30,73,61,49,57,53,48,95,76,48,29.94,29.84,1,0,0,0.00